Terminal Aerodrome Forecast
Issued by NWS

Home | Current Version | Previous Version | Text Only | Print | Product List | Glossary On
Versions: 1 2 3 4 5 6 7 8 9 10 11 12 13 14
000
FTUS43 KFGF 302320
TAFTVF
TAF
KTVF 302320Z 0100/0124 08009KT P6SM FEW250
     FM010500 05006KT P6SM SCT250
     FM011300 03010KT P6SM BKN200=

USA.gov is the U.S. government's official web portal to all federal, state and local government web resources and services.